Time;durP1;ratioP1;P1;durP2;ratioP2;P2;SDS_P1;SDS_P2;PMS_P1;PMS_P2;Temp;Humidity;BMP_temperature;BMP_pressure;BME280_temperature;BME280_humidity;BME280_pressure;Samples;Min_cycle;Max_cycle;Signal;HPM_P1;HPM_P2
2022/04/10 00:00:54;;;;;;;9.30;2.08;;;3.50;99.90;;;;;;5069791;28;20067;-81
2022/04/10 00:03:20;;;;;;;8.77;1.92;;;3.40;99.90;;;;;;5053270;28;20021;-81
2022/04/10 00:05:46;;;;;;;8.10;1.52;;;3.30;99.90;;;;;;5051708;28;20032;-81
2022/04/10 00:08:12;;;;;;;8.75;1.60;;;3.30;99.90;;;;;;5050840;28;20048;-81
2022/04/10 00:10:37;;;;;;;10.50;1.85;;;3.40;99.90;;;;;;5055005;28;20039;-82
2022/04/10 00:13:03;;;;;;;5.75;2.05;;;3.40;99.90;;;;;;5058351;28;20025;-81
2022/04/10 00:15:28;;;;;;;16.60;2.45;;;3.30;99.90;;;;;;5051510;28;20029;-81
2022/04/10 00:17:54;;;;;;;8.82;1.60;;;3.40;99.90;;;;;;5051389;28;20041;-81
2022/04/10 00:20:19;;;;;;;6.70;1.65;;;3.40;99.90;;;;;;5051509;28;20024;-81
2022/04/10 00:22:47;;;;;;;7.45;2.10;;;3.40;99.90;;;;;;5051586;28;20029;-81
2022/04/10 00:25:18;;;;;;;6.22;1.67;;;3.60;99.90;;;;;;5050693;28;20380;-79
2022/04/10 00:27:44;;;;;;;8.95;1.55;;;3.70;99.90;;;;;;5051882;28;20021;-80
2022/04/10 00:30:12;;;;;;;7.13;1.52;;;3.70;99.90;;;;;;5051213;28;20075;-81
2022/04/10 00:32:38;;;;;;;6.90;1.58;;;3.60;99.90;;;;;;5050944;28;20029;-81
2022/04/10 00:35:05;;;;;;;5.80;2.67;;;3.50;99.90;;;;;;5051355;28;20025;-81
2022/04/10 00:37:35;;;;;;;8.02;1.75;;;3.60;99.90;;;;;;5051234;28;20051;-81
2022/04/10 00:40:01;;;;;;;11.82;1.77;;;3.60;99.90;;;;;;5050871;28;20070;-81
2022/04/10 00:42:37;;;;;;;7.68;1.63;;;3.50;99.90;;;;;;5051351;28;20028;-81
2022/04/10 00:45:05;;;;;;;5.68;1.70;;;3.40;99.90;;;;;;5051647;28;20025;-81
2022/04/10 00:47:31;;;;;;;5.60;1.55;;;3.50;99.90;;;;;;5050394;28;20496;-82
2022/04/10 00:50:00;;;;;;;6.30;1.25;;;3.50;99.90;;;;;;5051277;28;20033;-81
2022/04/10 00:52:27;;;;;;;7.45;1.80;;;3.50;99.90;;;;;;5050939;28;20435;-81
2022/04/10 00:54:53;;;;;;;6.78;1.40;;;3.40;99.90;;;;;;5050725;28;20025;-81
2022/04/10 00:57:19;;;;;;;5.78;1.27;;;3.30;99.90;;;;;;5051219;28;20048;-81
2022/04/10 00:59:45;;;;;;;5.47;1.65;;;3.30;99.90;;;;;;5050784;28;20021;-81
2022/04/10 01:02:11;;;;;;;8.63;2.10;;;3.20;99.90;;;;;;5050794;28;20025;-81
2022/04/10 01:04:37;;;;;;;7.95;1.45;;;3.20;99.90;;;;;;5051271;28;20029;-80
2022/04/10 01:07:04;;;;;;;6.55;1.55;;;3.20;99.90;;;;;;5050199;28;20025;-81
2022/04/10 01:09:31;;;;;;;8.73;2.00;;;3.20;99.90;;;;;;5050910;28;20384;-82
2022/04/10 01:11:57;;;;;;;6.32;1.50;;;3.20;99.90;;;;;;5051154;28;20108;-82
2022/04/10 01:14:23;;;;;;;8.15;1.90;;;3.20;99.90;;;;;;5050158;28;20493;-81
2022/04/10 01:16:49;;;;;;;9.48;1.70;;;3.20;99.90;;;;;;5051426;28;20044;-81
2022/04/10 01:19:18;;;;;;;6.05;1.52;;;3.10;99.90;;;;;;5053926;28;20108;-81
2022/04/10 01:21:46;;;;;;;4.20;1.00;;;3.10;99.90;;;;;;5054646;28;20029;-81
2022/04/10 01:24:13;;;;;;;9.00;1.40;;;3.10;99.90;;;;;;5054747;28;20060;-80
2022/04/10 01:26:38;;;;;;;8.15;2.53;;;3.20;99.90;;;;;;5055138;28;20048;-81
2022/04/10 01:29:10;;;;;;;10.35;2.15;;;3.30;99.90;;;;;;5054163;28;20405;-81
2022/04/10 01:31:40;;;;;;;6.57;1.50;;;3.30;99.90;;;;;;5054860;28;20100;-81
2022/04/10 01:34:08;;;;;;;4.88;1.52;;;3.30;99.90;;;;;;5072532;28;20439;-81
2022/04/10 01:36:35;;;;;;;4.28;1.60;;;3.20;99.90;;;;;;5056256;28;20091;-81
2022/04/10 01:39:02;;;;;;;6.43;2.35;;;3.40;99.90;;;;;;5054757;28;20025;-82
2022/04/10 01:41:28;;;;;;;4.00;1.38;;;3.20;99.90;;;;;;5054474;28;20075;-80
2022/04/10 01:43:55;;;;;;;5.40;2.15;;;3.10;99.90;;;;;;5053861;28;20112;-81
2022/04/10 01:46:25;;;;;;;11.00;1.67;;;3.20;99.90;;;;;;5054230;28;20104;-80
2022/04/10 01:48:50;;;;;;;5.20;1.53;;;3.20;99.90;;;;;;5054159;28;20048;-80
2022/04/10 01:51:16;;;;;;;5.85;1.40;;;3.30;99.90;;;;;;5053632;28;20271;-80
2022/04/10 01:53:42;;;;;;;4.25;1.42;;;3.30;99.90;;;;;;5054636;28;20029;-81
2022/04/10 01:56:09;;;;;;;5.95;1.38;;;3.30;99.90;;;;;;5053789;28;20025;-82
2022/04/10 01:58:36;;;;;;;5.35;1.48;;;3.30;99.90;;;;;;5054450;28;20048;-81
2022/04/10 02:01:04;;;;;;;8.75;1.80;;;3.30;99.90;;;;;;5053821;28;20377;-81
2022/04/10 02:03:29;;;;;;;3.88;1.20;;;3.20;99.90;;;;;;5052891;28;20461;-81
2022/04/10 02:05:55;;;;;;;14.35;3.28;;;3.10;99.90;;;;;;5054360;28;20064;-81
2022/04/10 02:08:21;;;;;;;6.07;1.30;;;3.00;99.90;;;;;;5053591;28;20052;-80
2022/04/10 02:10:47;;;;;;;4.65;1.40;;;3.10;99.90;;;;;;5052057;28;20029;-81
2022/04/10 02:13:13;;;;;;;5.15;1.50;;;3.20;99.90;;;;;;5053899;28;20021;-79
2022/04/10 02:15:39;;;;;;;5.18;1.58;;;3.10;99.90;;;;;;5053951;28;20535;-81
2022/04/10 02:18:05;;;;;;;5.28;1.77;;;3.10;99.90;;;;;;5053245;28;20017;-80
2022/04/10 02:20:31;;;;;;;8.35;1.73;;;3.00;99.90;;;;;;5053841;28;20029;-81
2022/04/10 02:22:57;;;;;;;7.47;1.50;;;3.00;99.90;;;;;;5053848;28;20028;-81
2022/04/10 02:25:22;;;;;;;7.85;1.90;;;2.90;99.90;;;;;;5052955;28;20031;-81
2022/04/10 02:27:48;;;;;;;8.82;1.60;;;3.00;99.90;;;;;;5053794;28;20048;-81
2022/04/10 02:30:14;;;;;;;6.88;1.98;;;2.90;99.90;;;;;;5052546;28;20045;-82
2022/04/10 02:32:40;;;;;;;9.00;1.50;;;2.90;99.90;;;;;;5053215;28;20074;-81
2022/04/10 02:35:07;;;;;;;3.50;1.40;;;2.90;99.90;;;;;;5053712;28;20048;-80
2022/04/10 02:37:33;;;;;;;4.20;1.35;;;2.90;99.90;;;;;;5053537;28;20111;-80
2022/04/10 02:39:59;;;;;;;7.72;1.65;;;2.80;99.90;;;;;;5052757;28;20515;-81
2022/04/10 02:42:24;;;;;;;6.63;1.70;;;2.80;99.90;;;;;;5052870;28;20116;-81
2022/04/10 02:44:50;;;;;;;1.85;1.25;;;2.80;99.90;;;;;;5053292;28;20116;-81
2022/04/10 02:47:15;;;;;;;5.88;1.60;;;2.80;99.90;;;;;;5051900;28;20063;-81
2022/04/10 02:49:44;;;;;;;7.10;1.70;;;2.70;99.90;;;;;;5052794;28;20076;-81
2022/04/10 02:52:09;;;;;;;6.25;1.80;;;2.70;99.90;;;;;;5052987;28;20025;-79
2022/04/10 02:54:36;;;;;;;4.10;1.65;;;2.60;99.90;;;;;;5052279;28;20021;-82
2022/04/10 02:57:01;;;;;;;7.45;1.90;;;2.60;99.90;;;;;;5052707;28;20067;-81
2022/04/10 02:59:27;;;;;;;2.95;1.70;;;2.60;99.90;;;;;;5052079;28;20473;-82
2022/04/10 03:01:52;;;;;;;5.65;1.65;;;2.50;99.90;;;;;;5053201;28;20021;-81
2022/04/10 03:04:18;;;;;;;3.60;1.60;;;2.50;99.90;;;;;;5052814;28;20028;-80
2022/04/10 03:06:44;;;;;;;7.35;1.60;;;2.50;99.90;;;;;;5057315;28;20174;-81
2022/04/10 03:09:09;;;;;;;6.53;1.38;;;2.90;99.90;;;;;;5052460;28;20084;-81
2022/04/10 03:11:35;;;;;;;7.30;1.50;;;2.50;99.90;;;;;;5052919;28;20017;-81
2022/04/10 03:14:00;;;;;;;7.13;2.47;;;2.50;99.90;;;;;;5051967;28;20024;-81
2022/04/10 03:16:29;;;;;;;4.97;1.58;;;2.50;99.90;;;;;;5052414;28;20504;-82
2022/04/10 03:18:54;;;;;;;9.30;2.58;;;2.50;99.90;;;;;;5052591;28;20028;-82
2022/04/10 03:21:20;;;;;;;7.53;1.40;;;2.60;99.90;;;;;;5051822;28;20020;-82
2022/04/10 03:23:46;;;;;;;6.20;1.60;;;2.70;99.90;;;;;;5052497;28;20154;-80
2022/04/10 03:26:12;;;;;;;10.10;1.60;;;2.60;99.90;;;;;;5052153;28;20027;-82
2022/04/10 03:28:37;;;;;;;6.47;1.60;;;2.60;99.90;;;;;;5051594;28;20028;-80
2022/04/10 03:31:03;;;;;;;5.57;1.70;;;2.60;99.90;;;;;;5052175;28;20036;-81
2022/04/10 03:33:28;;;;;;;9.20;1.75;;;2.60;99.90;;;;;;5050559;28;20060;-81
2022/04/10 03:35:54;;;;;;;5.28;1.88;;;2.60;99.90;;;;;;5051845;28;20056;-82
2022/04/10 03:38:20;;;;;;;7.45;1.52;;;2.60;99.90;;;;;;5052123;28;20049;-81
2022/04/10 03:40:46;;;;;;;13.95;1.75;;;2.60;99.90;;;;;;5052222;28;20083;-81
2022/04/10 03:43:12;;;;;;;9.10;1.52;;;2.50;99.90;;;;;;5051437;28;20036;-80
2022/04/10 03:45:39;;;;;;;6.47;1.40;;;2.70;99.90;;;;;;5054819;28;20029;-80
2022/04/10 03:48:07;;;;;;;6.50;1.65;;;2.80;99.90;;;;;;5072368;28;20035;-81
2022/04/10 03:50:34;;;;;;;7.30;1.75;;;3.00;99.90;;;;;;5071738;28;20032;-81
2022/04/10 03:53:00;;;;;;;7.40;1.63;;;3.00;99.90;;;;;;5072778;28;20039;-81
2022/04/10 03:55:26;;;;;;;12.70;1.77;;;3.00;99.90;;;;;;5071844;28;20028;-81
2022/04/10 03:57:51;;;;;;;6.53;1.90;;;3.00;99.90;;;;;;5071329;28;20483;-81
2022/04/10 04:00:18;;;;;;;8.00;1.60;;;3.00;99.90;;;;;;5071809;28;20032;-81
2022/04/10 04:02:44;;;;;;;8.10;1.50;;;3.00;99.90;;;;;;5071343;28;20122;-81
2022/04/10 04:05:10;;;;;;;4.80;1.70;;;3.00;99.90;;;;;;5071301;28;20037;-80
2022/04/10 04:07:36;;;;;;;5.55;1.40;;;2.90;99.90;;;;;;5071872;28;20106;-79
2022/04/10 04:10:02;;;;;;;4.68;1.52;;;2.90;99.90;;;;;;5071390;28;20043;-81
2022/04/10 04:12:29;;;;;;;5.70;1.30;;;2.80;99.90;;;;;;5071813;28;20542;-80
2022/04/10 04:14:57;;;;;;;2.65;1.48;;;2.70;99.90;;;;;;5071918;28;20113;-81
2022/04/10 04:17:23;;;;;;;3.28;1.30;;;2.60;99.90;;;;;;5070775;28;20020;-81
2022/04/10 04:19:51;;;;;;;4.18;1.60;;;2.50;99.90;;;;;;5071523;28;20035;-81
2022/04/10 04:22:17;;;;;;;3.70;1.40;;;2.50;99.90;;;;;;5071395;28;20029;-80
2022/04/10 04:24:42;;;;;;;7.00;1.48;;;2.50;99.90;;;;;;5070670;28;20021;-81
2022/04/10 04:27:08;;;;;;;4.78;1.65;;;3.40;99.90;;;;;;5071415;28;20119;-81
2022/04/10 04:29:34;;;;;;;4.30;1.17;;;1.20;99.90;;;;;;5071256;28;20040;-81
2022/04/10 04:32:00;;;;;;;1.65;1.23;;;2.40;99.90;;;;;;5070850;28;20029;-81
2022/04/10 04:34:25;;;;;;;5.50;1.77;;;2.40;99.90;;;;;;5071383;28;20020;-81
2022/04/10 04:36:51;;;;;;;8.32;1.63;;;2.40;99.90;;;;;;5071616;28;20075;-80
2022/04/10 04:39:17;;;;;;;5.32;1.50;;;2.50;99.90;;;;;;5079036;28;20021;-80
2022/04/10 04:41:42;;;;;;;9.15;1.60;;;2.50;99.90;;;;;;5081196;28;20032;-80
2022/04/10 04:44:08;;;;;;;9.20;1.50;;;2.40;99.90;;;;;;5072127;28;20032;-83
2022/04/10 04:46:34;;;;;;;9.60;2.17;;;2.50;99.90;;;;;;5070822;28;20017;-83
2022/04/10 04:48:59;;;;;;;9.98;1.85;;;2.40;99.90;;;;;;5071317;28;20109;-80
2022/04/10 04:51:25;;;;;;;8.25;2.50;;;2.60;99.90;;;;;;5070893;28;20036;-81
2022/04/10 04:53:50;;;;;;;7.88;1.90;;;2.60;99.90;;;;;;5072296;28;20028;-81
2022/04/10 04:56:16;;;;;;;3.55;1.45;;;2.60;99.90;;;;;;5074759;28;20499;-81
2022/04/10 04:58:42;;;;;;;3.40;1.30;;;2.60;99.90;;;;;;5074893;28;20473;-81
2022/04/10 05:01:08;;;;;;;8.30;1.80;;;2.70;99.90;;;;;;5074184;28;20217;-82
2022/04/10 05:03:37;;;;;;;14.88;1.88;;;2.70;99.90;;;;;;5075240;28;20036;-82
2022/04/10 05:06:02;;;;;;;4.85;1.17;;;2.80;99.90;;;;;;5074507;28;20434;-80
2022/04/10 05:08:28;;;;;;;4.93;1.45;;;2.80;99.90;;;;;;5074510;28;20049;-81
2022/04/10 05:10:53;;;;;;;6.72;1.92;;;2.90;99.90;;;;;;5074895;28;20041;-81
2022/04/10 05:13:19;;;;;;;6.40;1.67;;;2.90;99.90;;;;;;5074215;28;20033;-81
2022/04/10 05:15:44;;;;;;;2.97;1.60;;;2.90;99.90;;;;;;5075145;28;20024;-81
2022/04/10 05:18:10;;;;;;;7.75;1.80;;;2.90;99.90;;;;;;5074691;28;20021;-81
2022/04/10 05:20:37;;;;;;;6.57;2.50;;;2.90;99.90;;;;;;5074405;28;20029;-80
2022/04/10 05:23:02;;;;;;;8.75;2.00;;;2.90;99.90;;;;;;5074855;28;20055;-81
2022/04/10 05:25:31;;;;;;;5.53;1.90;;;3.00;99.90;;;;;;5074768;28;20107;-83
2022/04/10 05:27:56;;;;;;;5.30;2.15;;;3.00;99.90;;;;;;5074681;28;20028;-83
2022/04/10 05:30:22;;;;;;;3.35;1.95;;;3.00;99.90;;;;;;5074888;28;20028;-84
2022/04/10 05:32:48;;;;;;;2.88;1.77;;;3.10;99.90;;;;;;5075244;28;20031;-82
2022/04/10 05:35:14;;;;;;;11.98;3.53;;;3.00;99.90;;;;;;5074216;28;20384;-84
2022/04/10 05:37:40;;;;;;;10.70;1.90;;;3.00;99.90;;;;;;5082663;28;20028;-82
2022/04/10 05:40:06;;;;;;;6.22;1.55;;;3.10;99.90;;;;;;5084464;28;20032;-82
2022/04/10 05:42:31;;;;;;;6.60;1.55;;;3.10;99.90;;;;;;5074746;28;20468;-82
2022/04/10 05:45:01;;;;;;;7.38;1.60;;;3.10;99.90;;;;;;5074487;28;20094;-84
2022/04/10 05:47:27;;;;;;;8.20;2.10;;;3.10;99.90;;;;;;5054788;28;20066;-81
2022/04/10 05:49:52;;;;;;;6.25;1.45;;;3.10;99.90;;;;;;5053943;28;20123;-81
2022/04/10 05:52:18;;;;;;;7.82;1.65;;;3.20;99.90;;;;;;5053962;28;20029;-82
2022/04/10 05:54:43;;;;;;;5.18;1.83;;;3.20;99.90;;;;;;5053763;28;20377;-82
2022/04/10 05:57:09;;;;;;;4.47;1.73;;;3.30;99.90;;;;;;5052883;28;20021;-82
2022/04/10 05:59:34;;;;;;;4.25;1.90;;;3.30;99.90;;;;;;5053747;28;20021;-82
2022/04/10 06:02:00;;;;;;;13.85;2.42;;;3.40;99.90;;;;;;5056486;28;20020;-82
2022/04/10 06:04:26;;;;;;;7.18;1.83;;;3.50;99.90;;;;;;5051611;28;20025;-81
2022/04/10 06:06:52;;;;;;;6.22;1.42;;;3.60;99.90;;;;;;5053725;28;20067;-81
2022/04/10 06:09:17;;;;;;;4.97;1.70;;;3.60;99.90;;;;;;5052098;28;20041;-81
2022/04/10 06:11:43;;;;;;;8.68;1.48;;;3.80;99.90;;;;;;5056281;28;20473;-80
2022/04/10 06:14:08;;;;;;;5.35;1.65;;;3.90;99.90;;;;;;5057705;28;20025;-79
2022/04/10 06:16:34;;;;;;;5.75;1.40;;;4.20;99.90;;;;;;5052815;28;20028;-81
2022/04/10 06:18:59;;;;;;;9.40;1.80;;;4.30;99.90;;;;;;5056115;28;20020;-81
2022/04/10 06:21:26;;;;;;;8.30;1.58;;;5.60;99.90;;;;;;5052868;28;20025;-83
2022/04/10 06:23:54;;;;;;;3.22;1.80;;;4.40;99.90;;;;;;5053003;28;20025;-82
2022/04/10 06:26:20;;;;;;;3.08;1.88;;;4.50;99.90;;;;;;5056201;28;20361;-82
2022/04/10 06:28:45;;;;;;;4.47;1.92;;;4.60;99.90;;;;;;5059041;28;20016;-81
2022/04/10 06:31:11;;;;;;;5.30;1.60;;;4.80;99.90;;;;;;5052294;28;20056;-83
2022/04/10 06:33:37;;;;;;;11.75;1.90;;;4.70;99.90;;;;;;5053290;28;20025;-81
2022/04/10 06:36:02;;;;;;;4.03;1.70;;;4.90;99.90;;;;;;5052857;28;20425;-83
2022/04/10 06:38:28;;;;;;;7.43;1.73;;;5.00;99.90;;;;;;5053954;28;20032;-83
2022/04/10 06:40:56;;;;;;;12.15;2.42;;;5.20;99.90;;;;;;5059432;28;20032;-81
2022/04/10 06:43:23;;;;;;;13.27;2.88;;;5.30;99.90;;;;;;5053473;28;20071;-80
2022/04/10 06:45:49;;;;;;;8.48;1.90;;;5.50;99.90;;;;;;5052056;28;20047;-81
2022/04/10 06:48:14;;;;;;;11.35;1.80;;;5.60;99.90;;;;;;5052674;28;20037;-81
2022/04/10 06:50:40;;;;;;;8.15;1.65;;;5.60;99.90;;;;;;5060899;28;20028;-81
2022/04/10 06:53:06;;;;;;;3.30;1.50;;;5.80;99.90;;;;;;5054140;28;20536;-81
2022/04/10 06:55:31;;;;;;;5.72;1.75;;;5.80;99.90;;;;;;5052884;28;20021;-81
2022/04/10 06:57:57;;;;;;;2.58;1.65;;;6.00;99.90;;;;;;5055454;28;20021;-82
2022/04/10 07:00:23;;;;;;;6.78;1.75;;;6.00;99.90;;;;;;5062576;28;20532;-81
2022/04/10 07:02:49;;;;;;;7.43;1.60;;;6.00;99.90;;;;;;5052428;28;20039;-82
2022/04/10 07:05:15;;;;;;;5.25;1.60;;;6.00;99.90;;;;;;5055212;28;20083;-83
2022/04/10 07:07:40;;;;;;;8.05;1.35;;;6.00;99.90;;;;;;5054358;28;20408;-83
2022/04/10 07:10:06;;;;;;;5.07;2.15;;;6.00;99.90;;;;;;5058342;28;20032;-84
2022/04/10 07:12:32;;;;;;;8.98;1.77;;;6.00;99.90;;;;;;5052333;28;20036;-84
2022/04/10 07:15:01;;;;;;;3.92;1.80;;;6.00;99.90;;;;;;5053551;28;20029;-83
2022/04/10 07:17:27;;;;;;;9.57;2.95;;;5.90;99.90;;;;;;5053031;28;20143;-83
2022/04/10 07:19:53;;;;;;;5.47;1.45;;;5.90;99.90;;;;;;5052317;28;20062;-82
2022/04/10 07:25:03;;;;;;;4.40;2.05;;;5.70;99.90;;;;;;5053006;28;20040;-82
2022/04/10 07:27:29;;;;;;;13.35;1.75;;;5.70;99.90;;;;;;5051648;28;20045;-76
2022/04/10 07:29:55;;;;;;;3.78;1.75;;;5.70;99.90;;;;;;5068198;28;20039;-76
2022/04/10 07:32:20;;;;;;;9.85;1.80;;;5.70;99.90;;;;;;5052761;28;20017;-74
2022/04/10 07:34:46;;;;;;;5.72;1.70;;;5.80;99.90;;;;;;5050768;28;20020;-77
2022/04/10 07:37:11;;;;;;;4.90;1.27;;;5.90;99.90;;;;;;5051182;28;20025;-77
2022/04/10 07:39:37;;;;;;;3.40;1.33;;;5.90;99.90;;;;;;5051624;28;20039;-77
2022/04/10 07:42:03;;;;;;;5.30;1.73;;;6.00;99.90;;;;;;5050873;28;20031;-77
2022/04/10 07:44:28;;;;;;;6.25;1.50;;;6.10;99.90;;;;;;5057873;28;20113;-77
2022/04/10 07:49:38;;;;;;;4.40;1.40;;;6.40;99.90;;;;;;5050515;28;20087;-75
2022/04/10 07:52:04;;;;;;;3.83;1.13;;;6.50;99.90;;;;;;5051241;28;20025;-76
2022/04/10 07:54:29;;;;;;;4.53;1.23;;;6.50;99.90;;;;;;5051032;28;20072;-75
2022/04/10 07:56:55;;;;;;;4.43;1.58;;;6.50;99.90;;;;;;5051612;28;20025;-77
2022/04/10 07:59:23;;;;;;;8.85;1.67;;;6.50;99.90;;;;;;5052677;28;20025;-76
2022/04/10 08:01:49;;;;;;;5.78;1.58;;;6.90;99.90;;;;;;5052769;28;20099;-76
2022/04/10 08:04:14;;;;;;;7.03;1.40;;;6.70;99.90;;;;;;5075347;28;20476;-76
2022/04/10 08:06:40;;;;;;;3.97;1.30;;;6.70;99.90;;;;;;5072540;28;20473;-74
2022/04/10 08:09:05;;;;;;;3.40;1.70;;;6.70;99.90;;;;;;5071071;28;20044;-77
2022/04/10 08:11:31;;;;;;;6.03;1.52;;;6.80;99.90;;;;;;5071838;28;20024;-76
2022/04/10 08:13:56;;;;;;;7.25;1.67;;;6.80;99.90;;;;;;5072083;28;20029;-77
2022/04/10 08:16:22;;;;;;;6.28;1.27;;;6.80;99.90;;;;;;5070888;28;20028;-76
2022/04/10 08:18:47;;;;;;;4.43;1.60;;;6.90;99.90;;;;;;5072238;28;20489;-77
2022/04/10 08:21:13;;;;;;;2.30;1.25;;;7.00;99.90;;;;;;5071880;28;20028;-76
2022/04/10 08:23:39;;;;;;;4.53;1.27;;;7.10;99.90;;;;;;5070788;28;20099;-76
2022/04/10 08:26:04;;;;;;;5.13;1.52;;;7.20;99.90;;;;;;5054609;28;20024;-79
2022/04/10 08:28:32;;;;;;;9.73;1.70;;;7.40;99.90;;;;;;5070511;28;20066;-75
2022/04/10 08:30:57;;;;;;;6.90;1.40;;;8.20;99.90;;;;;;5055256;28;20503;-80
2022/04/10 08:33:26;;;;;;;7.18;1.50;;;7.60;99.90;;;;;;5051381;28;20045;-76
2022/04/10 08:35:51;;;;;;;5.30;2.15;;;7.70;99.90;;;;;;5051355;28;20074;-76
2022/04/10 08:38:17;;;;;;;9.60;1.70;;;7.70;99.90;;;;;;5050262;28;20025;-77
2022/04/10 08:40:44;;;;;;;7.15;1.60;;;7.80;99.90;;;;;;5051811;28;20028;-78
2022/04/10 08:43:11;;;;;;;5.15;1.30;;;7.90;99.90;;;;;;5059113;28;20029;-74
2022/04/10 08:45:38;;;;;;;7.28;2.55;;;8.00;99.90;;;;;;5071687;28;20441;-76
2022/04/10 08:48:04;;;;;;;6.97;1.50;;;8.00;99.90;;;;;;5071800;28;20033;-75
2022/04/10 08:50:30;;;;;;;8.40;1.17;;;8.10;99.90;;;;;;5071340;28;20063;-76
2022/04/10 08:52:58;;;;;;;7.28;1.38;;;8.10;99.90;;;;;;5070820;28;20040;-76
2022/04/10 08:55:24;;;;;;;3.45;0.90;;;8.20;99.90;;;;;;5060868;28;20047;-74
2022/04/10 08:57:50;;;;;;;3.22;1.23;;;8.10;99.90;;;;;;5057573;28;20041;-78
2022/04/10 09:00:18;;;;;;;4.35;1.15;;;8.20;99.90;;;;;;5068718;28;20087;-75
2022/04/10 09:02:48;;;;;;;4.15;1.10;;;8.30;99.90;;;;;;5071489;28;20021;-77
2022/04/10 09:05:21;;;;;;;9.38;2.65;;;8.40;99.90;;;;;;5068855;28;20376;-77
2022/04/10 09:08:10;;;;;;;4.53;1.30;;;8.60;99.90;;;;;;5051413;28;20067;-77
2022/04/10 09:11:04;;;;;;;4.75;1.42;;;8.80;99.90;;;;;;5053503;28;20041;-78
2022/04/10 09:13:48;;;;;;;2.03;1.33;;;9.00;99.90;;;;;;5051864;28;20876;-78
2022/04/10 09:16:39;;;;;;;11.60;1.40;;;9.20;99.90;;;;;;5055870;28;20108;-77
2022/04/10 09:19:08;;;;;;;5.82;2.00;;;9.20;99.90;;;;;;5051944;28;20095;-77
2022/04/10 09:21:39;;;;;;;4.75;1.92;;;9.00;99.90;;;;;;5058484;28;20040;-76
2022/04/10 09:24:06;;;;;;;4.93;1.55;;;9.00;99.90;;;;;;5050993;28;20036;-76
2022/04/10 09:26:52;;;;;;;3.35;1.20;;;8.90;99.90;;;;;;5050831;28;20025;-77
2022/04/10 09:29:19;;;;;;;7.07;2.17;;;9.00;99.90;;;;;;5050892;28;20045;-77
2022/04/10 09:31:46;;;;;;;5.10;1.27;;;9.10;99.90;;;;;;5051518;28;20025;-76
2022/04/10 09:34:19;;;;;;;4.15;1.23;;;9.20;99.90;;;;;;5050613;28;20116;-77
2022/04/10 09:36:46;;;;;;;5.88;1.40;;;9.30;99.90;;;;;;5055725;28;20025;-76
2022/04/10 09:39:15;;;;;;;1.73;1.25;;;9.30;99.90;;;;;;5054168;28;20074;-75
2022/04/10 09:41:43;;;;;;;1.85;0.88;;;9.40;99.90;;;;;;5056241;28;20016;-77
2022/04/10 09:44:19;;;;;;;7.18;1.00;;;9.40;99.90;;;;;;5059382;28;20029;-76
2022/04/10 09:46:59;;;;;;;7.60;1.20;;;9.40;99.90;;;;;;5064351;28;20487;-76
2022/04/10 09:49:30;;;;;;;5.45;1.30;;;9.60;99.90;;;;;;5058947;28;20032;-76
2022/04/10 09:52:09;;;;;;;;;;;9.70;99.90;;;;;;5059793;28;20029;-73
2022/04/10 09:54:37;;;;;;;3.13;1.38;;;9.80;99.90;;;;;;5053266;28;19908;-77
2022/04/10 09:57:10;;;;;;;5.97;1.17;;;9.90;99.90;;;;;;5057022;28;20087;-77
2022/04/10 09:59:38;;;;;;;3.13;0.95;;;9.90;99.90;;;;;;5057173;28;20139;-77
2022/04/10 10:02:07;;;;;;;1.73;0.77;;;10.10;99.90;;;;;;5053397;28;20043;-77
2022/04/10 10:04:35;;;;;;;3.55;0.85;;;10.20;99.40;;;;;;5054083;28;20017;-77
2022/04/10 10:07:07;;;;;;;3.75;0.80;;;10.40;98.40;;;;;;5060238;28;20025;-77
2022/04/10 10:09:33;;;;;;;3.35;1.00;;;10.50;98.20;;;;;;5067641;28;20542;-77
2022/04/10 10:12:03;;;;;;;4.35;1.10;;;10.60;98.20;;;;;;5064725;28;20021;-76
2022/04/10 10:14:33;;;;;;;4.73;1.07;;;10.60;99.10;;;;;;5058924;28;20025;-77
2022/04/10 10:17:01;;;;;;;0.80;0.55;;;10.50;97.80;;;;;;5057148;28;20111;-78
2022/04/10 10:19:36;;;;;;;7.32;1.20;;;10.30;96.90;;;;;;5063005;28;20032;-78
2022/04/10 10:22:09;;;;;;;3.30;1.08;;;10.10;96.80;;;;;;5057694;28;20366;-77
2022/04/10 10:24:46;;;;;;;5.35;0.77;;;9.80;96.90;;;;;;5054288;28;20018;-76
2022/04/10 10:27:54;;;;;;;2.58;0.77;;;9.80;96.70;;;;;;5058478;28;20029;-76
2022/04/10 10:30:36;;;;;;;4.05;1.05;;;9.90;98.10;;;;;;5032899;28;20053;-77
2022/04/10 10:33:23;;;;;;;1.50;0.88;;;10.10;95.50;;;;;;5056247;28;20036;-77
2022/04/10 10:35:50;;;;;;;5.57;1.58;;;10.30;97.20;;;;;;5057094;28;20017;-78
2022/04/10 10:38:23;;;;;;;6.90;1.20;;;10.50;97.80;;;;;;5058786;28;20033;-77
2022/04/10 10:40:50;;;;;;;3.03;0.98;;;10.70;97.40;;;;;;5063453;28;20032;-77
2022/04/10 10:43:23;;;;;;;4.50;0.82;;;10.90;96.40;;;;;;5053670;28;20093;-79
2022/04/10 10:45:52;;;;;;;4.05;1.10;;;11.10;96.50;;;;;;5056336;28;20048;-79
2022/04/10 10:48:32;;;;;;;2.55;0.88;;;11.10;97.60;;;;;;5053761;28;20450;-78
2022/04/10 10:51:30;;;;;;;6.72;1.40;;;11.20;95.20;;;;;;5052410;28;20116;-78
2022/04/10 10:53:58;;;;;;;8.05;1.52;;;11.10;96.20;;;;;;5053542;28;20050;-77
2022/04/10 10:56:36;;;;;;;3.08;1.17;;;11.00;95.60;;;;;;5053668;28;20021;-81
2022/04/10 10:59:32;;;;;;;2.67;0.65;;;10.50;94.10;;;;;;5053788;28;20033;-77
2022/04/10 11:02:03;;;;;;;3.25;0.75;;;10.20;93.10;;;;;;5055962;28;20369;-80
2022/04/10 11:04:38;;;;;;;4.82;1.13;;;10.10;93.60;;;;;;5053168;28;20488;-79
2022/04/10 11:07:14;;;;;;;3.53;0.85;;;10.10;94.70;;;;;;5051290;28;20029;-79
2022/04/10 11:10:04;;;;;;;3.95;1.02;;;10.30;94.70;;;;;;5053378;28;20035;-79
2022/04/10 11:12:39;;;;;;;2.75;1.00;;;10.60;95.00;;;;;;5052682;28;20116;-79
2022/04/10 11:15:20;;;;;;;8.43;1.23;;;10.90;93.00;;;;;;5053975;28;20033;-79
2022/04/10 11:17:46;;;;;;;;;;;11.00;93.40;;;;;;5054063;28;20017;-80
2022/04/10 11:20:14;;;;;;;2.55;1.00;;;11.00;94.00;;;;;;5052763;28;19916;-80
2022/04/10 11:22:47;;;;;;;5.18;1.30;;;10.90;94.00;;;;;;5055467;28;20079;-80
2022/04/10 11:25:15;;;;;;;1.52;0.95;;;10.80;93.20;;;;;;5055684;28;20090;-79
2022/04/10 11:27:55;;;;;;;2.28;0.82;;;10.70;91.80;;;;;;5052638;28;20044;-79
2022/04/10 11:30:29;;;;;;;3.83;1.15;;;10.70;91.90;;;;;;5052909;28;20424;-79
2022/04/10 11:33:02;;;;;;;2.63;0.82;;;10.80;91.40;;;;;;5054449;28;20028;-78
2022/04/10 11:35:30;;;;;;;3.05;0.90;;;10.80;91.80;;;;;;5052692;28;20033;-79
2022/04/10 11:37:58;;;;;;;2.67;0.90;;;11.00;90.90;;;;;;5052956;28;20033;-79
2022/04/10 11:40:26;;;;;;;0.82;0.60;;;11.00;90.20;;;;;;5051809;28;20021;-79
2022/04/10 11:42:57;;;;;;;3.20;0.90;;;11.20;90.20;;;;;;5052819;28;20511;-78
2022/04/10 11:45:29;;;;;;;2.60;0.77;;;11.30;90.20;;;;;;5052559;28;20024;-80
2022/04/10 11:47:56;;;;;;;2.53;0.93;;;11.40;91.10;;;;;;5052249;28;20075;-80
2022/04/10 11:50:23;;;;;;;5.35;1.00;;;11.60;91.30;;;;;;5052405;28;20036;-79
2022/04/10 11:53:03;;;;;;;1.80;0.98;;;11.60;91.00;;;;;;5052494;28;20055;-79
2022/04/10 11:55:35;;;;;;;1.92;0.90;;;11.70;90.70;;;;;;5051798;28;20439;-79
2022/04/10 11:58:21;;;;;;;1.85;1.10;;;11.90;91.00;;;;;;5052544;28;20033;-79
2022/04/10 12:00:55;;;;;;;7.00;1.00;;;11.90;89.60;;;;;;5052322;28;20087;-80
2022/04/10 12:03:22;;;;;;;4.55;0.93;;;11.90;90.10;;;;;;5051060;28;20105;-78
2022/04/10 12:05:49;;;;;;;2.45;1.02;;;11.80;88.10;;;;;;5052427;28;20094;-77
2022/04/10 12:08:15;;;;;;;5.28;1.00;;;11.70;90.10;;;;;;5053800;28;20109;-78
2022/04/10 12:10:41;;;;;;;2.55;1.08;;;11.50;89.90;;;;;;5062490;28;20024;-79
2022/04/10 12:13:10;;;;;;;7.65;1.27;;;11.50;88.20;;;;;;5057781;28;20082;-79
2022/04/10 12:15:35;;;;;;;3.60;0.80;;;11.60;85.50;;;;;;5057609;28;20028;-78
2022/04/10 12:18:03;;;;;;;2.53;0.90;;;11.70;88.20;;;;;;5051880;28;20132;-77
2022/04/10 12:20:29;;;;;;;3.92;0.80;;;11.70;86.00;;;;;;5051872;28;20032;-76
2022/04/10 12:22:54;;;;;;;2.25;0.73;;;11.60;86.10;;;;;;5051606;28;20087;-77
2022/04/10 12:25:20;;;;;;;2.08;0.88;;;11.60;85.50;;;;;;5053283;28;20032;-74
2022/04/10 12:27:47;;;;;;;4.72;0.95;;;11.40;85.00;;;;;;5055418;28;20108;-76
2022/04/10 12:30:14;;;;;;;2.47;0.70;;;11.30;84.60;;;;;;5050229;28;20060;-77
2022/04/10 12:32:40;;;;;;;4.53;0.80;;;11.40;86.40;;;;;;5051198;28;20112;-76
2022/04/10 12:35:08;;;;;;;1.33;0.77;;;11.30;85.40;;;;;;5052165;28;20032;-75
2022/04/10 12:37:34;;;;;;;2.35;0.82;;;11.20;87.20;;;;;;5051383;28;20091;-75
2022/04/10 12:40:00;;;;;;;6.30;0.93;;;11.20;86.60;;;;;;5051290;28;20762;-78
2022/04/10 12:42:41;;;;;;;1.70;0.90;;;11.30;86.20;;;;;;5051508;28;20079;-78
2022/04/10 12:45:10;;;;;;;2.28;1.00;;;11.50;84.30;;;;;;5051155;28;20036;-77
2022/04/10 12:47:46;;;;;;;3.58;0.90;;;11.70;83.30;;;;;;5052144;28;20032;-76
2022/04/10 12:50:14;;;;;;;3.40;0.90;;;11.90;85.10;;;;;;5050628;28;20591;-76
2022/04/10 12:52:41;;;;;;;2.15;1.38;;;12.10;82.40;;;;;;5051836;28;20029;-76
2022/04/10 12:55:15;;;;;;;3.25;1.20;;;12.20;79.50;;;;;;5051646;28;20025;-76
2022/04/10 12:57:43;;;;;;;2.45;0.93;;;12.30;82.50;;;;;;5051611;28;20017;-77
2022/04/10 13:00:22;;;;;;;3.58;0.98;;;12.40;80.70;;;;;;5051711;28;20041;-77
2022/04/10 13:02:48;;;;;;;4.95;0.82;;;12.60;82.20;;;;;;5051684;28;20381;-77
2022/04/10 13:05:18;;;;;;;3.55;1.00;;;12.70;80.70;;;;;;5050765;28;20052;-77